sensor_id;sensor_type;location;lat;lon;timestamp;P1;durP1;ratioP1;P2;durP2;ratioP2
65667;SDS011;52369;52.542;13.232;2022-08-06T00:01:48;2.55;;;1.40;;
65667;SDS011;52369;52.542;13.232;2022-08-06T00:04:14;3.20;;;1.50;;
65667;SDS011;52369;52.542;13.232;2022-08-06T00:06:40;3.00;;;1.60;;
65667;SDS011;52369;52.542;13.232;2022-08-06T00:09:06;2.45;;;1.42;;
65667;SDS011;52369;52.542;13.232;2022-08-06T00:11:32;3.45;;;1.33;;
65667;SDS011;52369;52.542;13.232;2022-08-06T00:13:58;2.38;;;1.58;;
65667;SDS011;52369;52.542;13.232;2022-08-06T00:16:24;4.00;;;2.05;;
65667;SDS011;52369;52.542;13.232;2022-08-06T00:18:50;2.85;;;1.45;;
65667;SDS011;52369;52.542;13.232;2022-08-06T00:21:16;5.43;;;1.73;;
65667;SDS011;52369;52.542;13.232;2022-08-06T00:23:42;4.28;;;2.03;;
65667;SDS011;52369;52.542;13.232;2022-08-06T00:26:09;3.10;;;1.38;;
65667;SDS011;52369;52.542;13.232;2022-08-06T00:28:35;3.55;;;1.92;;
65667;SDS011;52369;52.542;13.232;2022-08-06T00:31:01;3.40;;;1.52;;
65667;SDS011;52369;52.542;13.232;2022-08-06T00:33:28;4.05;;;1.48;;
65667;SDS011;52369;52.542;13.232;2022-08-06T00:35:54;4.38;;;2.20;;
65667;SDS011;52369;52.542;13.232;2022-08-06T00:38:20;3.03;;;1.10;;
65667;SDS011;52369;52.542;13.232;2022-08-06T00:40:46;3.60;;;1.85;;
65667;SDS011;52369;52.542;13.232;2022-08-06T00:43:13;2.85;;;1.35;;
65667;SDS011;52369;52.542;13.232;2022-08-06T00:45:39;1.30;;;0.85;;
65667;SDS011;52369;52.542;13.232;2022-08-06T00:48:05;2.03;;;1.42;;
65667;SDS011;52369;52.542;13.232;2022-08-06T00:50:31;3.97;;;2.15;;
65667;SDS011;52369;52.542;13.232;2022-08-06T00:52:58;6.72;;;3.15;;
65667;SDS011;52369;52.542;13.232;2022-08-06T00:55:25;5.95;;;2.38;;
65667;SDS011;52369;52.542;13.232;2022-08-06T00:57:51;4.28;;;2.30;;
65667;SDS011;52369;52.542;13.232;2022-08-06T01:00:17;3.95;;;1.95;;
65667;SDS011;52369;52.542;13.232;2022-08-06T01:02:43;5.32;;;2.00;;
65667;SDS011;52369;52.542;13.232;2022-08-06T01:05:09;2.17;;;1.58;;
65667;SDS011;52369;52.542;13.232;2022-08-06T01:07:35;3.38;;;1.77;;
65667;SDS011;52369;52.542;13.232;2022-08-06T01:10:01;4.93;;;1.58;;
65667;SDS011;52369;52.542;13.232;2022-08-06T01:12:27;4.55;;;1.42;;
65667;SDS011;52369;52.542;13.232;2022-08-06T01:14:54;1.98;;;1.30;;
65667;SDS011;52369;52.542;13.232;2022-08-06T01:17:26;2.95;;;1.92;;
65667;SDS011;52369;52.542;13.232;2022-08-06T01:28:14;3.42;;;1.60;;
65667;SDS011;52369;52.542;13.232;2022-08-06T01:30:48;3.50;;;1.45;;
65667;SDS011;52369;52.542;13.232;2022-08-06T01:35:45;0.90;;;0.80;;
65667;SDS011;52369;52.542;13.232;2022-08-06T01:38:27;1.83;;;1.00;;
65667;SDS011;52369;52.542;13.232;2022-08-06T01:40:55;2.33;;;1.05;;
65667;SDS011;52369;52.542;13.232;2022-08-06T01:43:23;2.83;;;1.00;;
65667;SDS011;52369;52.542;13.232;2022-08-06T01:45:51;5.57;;;1.60;;
65667;SDS011;52369;52.542;13.232;2022-08-06T01:48:19;2.88;;;1.45;;
65667;SDS011;52369;52.542;13.232;2022-08-06T01:50:47;4.10;;;2.17;;
65667;SDS011;52369;52.542;13.232;2022-08-06T01:53:16;3.20;;;1.33;;
65667;SDS011;52369;52.542;13.232;2022-08-06T01:55:43;3.50;;;1.40;;
65667;SDS011;52369;52.542;13.232;2022-08-06T01:58:11;1.30;;;1.20;;
65667;SDS011;52369;52.542;13.232;2022-08-06T02:00:39;3.50;;;1.90;;
65667;SDS011;52369;52.542;13.232;2022-08-06T02:03:08;4.07;;;1.77;;
65667;SDS011;52369;52.542;13.232;2022-08-06T02:05:35;1.92;;;1.40;;
65667;SDS011;52369;52.542;13.232;2022-08-06T02:08:02;1.40;;;1.20;;
65667;SDS011;52369;52.542;13.232;2022-08-06T02:10:29;2.00;;;0.95;;
65667;SDS011;52369;52.542;13.232;2022-08-06T02:12:56;2.10;;;0.90;;
65667;SDS011;52369;52.542;13.232;2022-08-06T02:15:23;1.48;;;1.33;;
65667;SDS011;52369;52.542;13.232;2022-08-06T02:17:50;1.73;;;0.85;;
65667;SDS011;52369;52.542;13.232;2022-08-06T02:20:17;1.95;;;1.05;;
65667;SDS011;52369;52.542;13.232;2022-08-06T02:22:44;1.75;;;1.00;;
65667;SDS011;52369;52.542;13.232;2022-08-06T02:25:12;2.25;;;1.08;;
65667;SDS011;52369;52.542;13.232;2022-08-06T02:27:40;2.33;;;1.48;;
65667;SDS011;52369;52.542;13.232;2022-08-06T02:30:08;4.65;;;2.30;;
65667;SDS011;52369;52.542;13.232;2022-08-06T02:32:34;5.60;;;2.50;;
65667;SDS011;52369;52.542;13.232;2022-08-06T02:35:00;3.00;;;1.70;;
65667;SDS011;52369;52.542;13.232;2022-08-06T02:37:29;4.28;;;2.05;;
65667;SDS011;52369;52.542;13.232;2022-08-06T02:39:57;2.75;;;1.30;;
65667;SDS011;52369;52.542;13.232;2022-08-06T02:42:29;1.80;;;1.20;;
65667;SDS011;52369;52.542;13.232;2022-08-06T02:45:03;2.70;;;1.60;;
65667;SDS011;52369;52.542;13.232;2022-08-06T02:50:15;3.30;;;1.77;;
65667;SDS011;52369;52.542;13.232;2022-08-06T02:52:44;3.70;;;1.50;;
65667;SDS011;52369;52.542;13.232;2022-08-06T02:55:17;2.58;;;1.58;;
65667;SDS011;52369;52.542;13.232;2022-08-06T02:57:53;5.53;;;2.17;;
65667;SDS011;52369;52.542;13.232;2022-08-06T03:00:20;4.45;;;2.10;;
65667;SDS011;52369;52.542;13.232;2022-08-06T03:02:47;3.17;;;2.08;;
65667;SDS011;52369;52.542;13.232;2022-08-06T03:05:14;2.88;;;1.70;;
65667;SDS011;52369;52.542;13.232;2022-08-06T03:07:41;3.33;;;1.50;;
65667;SDS011;52369;52.542;13.232;2022-08-06T03:10:07;1.98;;;1.30;;
65667;SDS011;52369;52.542;13.232;2022-08-06T03:12:35;2.00;;;1.08;;
65667;SDS011;52369;52.542;13.232;2022-08-06T03:15:01;4.10;;;1.63;;
65667;SDS011;52369;52.542;13.232;2022-08-06T03:17:28;3.15;;;1.70;;
65667;SDS011;52369;52.542;13.232;2022-08-06T03:19:54;2.13;;;1.17;;
65667;SDS011;52369;52.542;13.232;2022-08-06T03:22:22;2.35;;;1.75;;
65667;SDS011;52369;52.542;13.232;2022-08-06T03:24:48;2.72;;;1.00;;
65667;SDS011;52369;52.542;13.232;2022-08-06T03:27:15;2.95;;;1.10;;
65667;SDS011;52369;52.542;13.232;2022-08-06T03:29:43;3.63;;;1.25;;
65667;SDS011;52369;52.542;13.232;2022-08-06T03:32:10;5.00;;;1.40;;
65667;SDS011;52369;52.542;13.232;2022-08-06T03:34:37;1.50;;;1.25;;
65667;SDS011;52369;52.542;13.232;2022-08-06T03:37:04;3.05;;;1.38;;
65667;SDS011;52369;52.542;13.232;2022-08-06T03:39:31;1.75;;;1.42;;
65667;SDS011;52369;52.542;13.232;2022-08-06T03:41:58;2.30;;;1.27;;
65667;SDS011;52369;52.542;13.232;2022-08-06T03:44:24;1.67;;;1.25;;
65667;SDS011;52369;52.542;13.232;2022-08-06T03:52:30;2.55;;;1.27;;
65667;SDS011;52369;52.542;13.232;2022-08-06T03:54:58;1.70;;;1.35;;
65667;SDS011;52369;52.542;13.232;2022-08-06T03:57:30;3.92;;;1.80;;
65667;SDS011;52369;52.542;13.232;2022-08-06T03:59:57;2.75;;;1.20;;
65667;SDS011;52369;52.542;13.232;2022-08-06T04:02:37;3.03;;;1.65;;
65667;SDS011;52369;52.542;13.232;2022-08-06T04:05:04;2.25;;;1.60;;
65667;SDS011;52369;52.542;13.232;2022-08-06T04:07:31;6.15;;;2.00;;
65667;SDS011;52369;52.542;13.232;2022-08-06T04:09:58;2.90;;;1.60;;
65667;SDS011;52369;52.542;13.232;2022-08-06T04:12:25;3.95;;;2.10;;
65667;SDS011;52369;52.542;13.232;2022-08-06T04:14:52;3.03;;;1.70;;
65667;SDS011;52369;52.542;13.232;2022-08-06T04:17:18;3.13;;;1.70;;
65667;SDS011;52369;52.542;13.232;2022-08-06T04:19:45;2.85;;;1.55;;
65667;SDS011;52369;52.542;13.232;2022-08-06T04:22:11;2.22;;;1.50;;
65667;SDS011;52369;52.542;13.232;2022-08-06T04:24:37;4.85;;;2.15;;
65667;SDS011;52369;52.542;13.232;2022-08-06T04:27:04;4.50;;;2.63;;
65667;SDS011;52369;52.542;13.232;2022-08-06T04:29:30;5.35;;;2.60;;
65667;SDS011;52369;52.542;13.232;2022-08-06T04:31:58;5.22;;;2.80;;
65667;SDS011;52369;52.542;13.232;2022-08-06T04:34:25;3.83;;;2.40;;
65667;SDS011;52369;52.542;13.232;2022-08-06T04:36:52;4.75;;;2.45;;
65667;SDS011;52369;52.542;13.232;2022-08-06T04:39:18;3.83;;;2.08;;
65667;SDS011;52369;52.542;13.232;2022-08-06T04:41:45;4.50;;;2.00;;
65667;SDS011;52369;52.542;13.232;2022-08-06T04:44:11;4.47;;;2.10;;
65667;SDS011;52369;52.542;13.232;2022-08-06T04:46:37;3.30;;;2.00;;
65667;SDS011;52369;52.542;13.232;2022-08-06T04:49:04;2.95;;;2.03;;
65667;SDS011;52369;52.542;13.232;2022-08-06T04:51:30;4.47;;;1.90;;
65667;SDS011;52369;52.542;13.232;2022-08-06T04:53:56;2.33;;;1.85;;
65667;SDS011;52369;52.542;13.232;2022-08-06T04:56:22;2.28;;;1.80;;
65667;SDS011;52369;52.542;13.232;2022-08-06T04:58:48;1.60;;;1.48;;
65667;SDS011;52369;52.542;13.232;2022-08-06T05:01:14;1.70;;;1.60;;
65667;SDS011;52369;52.542;13.232;2022-08-06T05:03:40;5.90;;;2.03;;
65667;SDS011;52369;52.542;13.232;2022-08-06T05:06:12;2.20;;;1.98;;
65667;SDS011;52369;52.542;13.232;2022-08-06T05:08:40;4.75;;;2.42;;
65667;SDS011;52369;52.542;13.232;2022-08-06T05:11:22;15.05;;;7.93;;
65667;SDS011;52369;52.542;13.232;2022-08-06T05:13:51;11.73;;;6.53;;
65667;SDS011;52369;52.542;13.232;2022-08-06T05:16:18;2.85;;;2.15;;
65667;SDS011;52369;52.542;13.232;2022-08-06T05:18:53;4.65;;;1.63;;
65667;SDS011;52369;52.542;13.232;2022-08-06T05:21:23;3.72;;;1.63;;
65667;SDS011;52369;52.542;13.232;2022-08-06T05:23:51;2.78;;;1.40;;
65667;SDS011;52369;52.542;13.232;2022-08-06T05:26:18;3.05;;;2.03;;
65667;SDS011;52369;52.542;13.232;2022-08-06T05:28:44;5.70;;;2.00;;
65667;SDS011;52369;52.542;13.232;2022-08-06T05:31:10;3.22;;;2.20;;
65667;SDS011;52369;52.542;13.232;2022-08-06T05:33:37;1.73;;;1.60;;
65667;SDS011;52369;52.542;13.232;2022-08-06T05:36:04;8.40;;;2.08;;
65667;SDS011;52369;52.542;13.232;2022-08-06T05:38:32;9.13;;;2.53;;
65667;SDS011;52369;52.542;13.232;2022-08-06T05:40:59;2.63;;;1.63;;
65667;SDS011;52369;52.542;13.232;2022-08-06T05:43:25;4.60;;;2.13;;
65667;SDS011;52369;52.542;13.232;2022-08-06T05:45:52;5.13;;;2.28;;
65667;SDS011;52369;52.542;13.232;2022-08-06T05:48:19;5.20;;;2.35;;
65667;SDS011;52369;52.542;13.232;2022-08-06T05:51:00;4.18;;;2.40;;
65667;SDS011;52369;52.542;13.232;2022-08-06T05:53:38;3.45;;;2.00;;
65667;SDS011;52369;52.542;13.232;2022-08-06T05:56:12;5.72;;;2.60;;
65667;SDS011;52369;52.542;13.232;2022-08-06T05:58:45;5.63;;;2.65;;
65667;SDS011;52369;52.542;13.232;2022-08-06T06:01:12;4.43;;;2.17;;
65667;SDS011;52369;52.542;13.232;2022-08-06T06:03:39;2.15;;;1.60;;
65667;SDS011;52369;52.542;13.232;2022-08-06T06:06:06;3.50;;;1.25;;
65667;SDS011;52369;52.542;13.232;2022-08-06T06:08:32;3.50;;;2.15;;
65667;SDS011;52369;52.542;13.232;2022-08-06T06:10:58;3.50;;;1.85;;
65667;SDS011;52369;52.542;13.232;2022-08-06T06:13:25;4.22;;;2.42;;
65667;SDS011;52369;52.542;13.232;2022-08-06T06:15:53;3.72;;;2.40;;
65667;SDS011;52369;52.542;13.232;2022-08-06T06:23:44;4.93;;;1.80;;
65667;SDS011;52369;52.542;13.232;2022-08-06T06:34:00;4.25;;;1.27;;
65667;SDS011;52369;52.542;13.232;2022-08-06T06:36:32;5.10;;;1.60;;
65667;SDS011;52369;52.542;13.232;2022-08-06T06:41:29;4.05;;;1.20;;
65667;SDS011;52369;52.542;13.232;2022-08-06T06:46:45;1.63;;;1.10;;
65667;SDS011;52369;52.542;13.232;2022-08-06T06:49:19;2.97;;;0.88;;
65667;SDS011;52369;52.542;13.232;2022-08-06T06:51:50;1.67;;;0.80;;
65667;SDS011;52369;52.542;13.232;2022-08-06T06:54:18;1.38;;;1.23;;
65667;SDS011;52369;52.542;13.232;2022-08-06T06:56:46;4.63;;;2.13;;
65667;SDS011;52369;52.542;13.232;2022-08-06T06:59:18;4.63;;;1.58;;
65667;SDS011;52369;52.542;13.232;2022-08-06T07:01:46;1.60;;;1.08;;
65667;SDS011;52369;52.542;13.232;2022-08-06T07:04:13;4.82;;;1.20;;
65667;SDS011;52369;52.542;13.232;2022-08-06T07:06:40;2.17;;;1.10;;
65667;SDS011;52369;52.542;13.232;2022-08-06T07:09:06;1.88;;;1.02;;
65667;SDS011;52369;52.542;13.232;2022-08-06T07:11:32;3.47;;;1.20;;
65667;SDS011;52369;52.542;13.232;2022-08-06T07:13:59;7.18;;;2.03;;
65667;SDS011;52369;52.542;13.232;2022-08-06T07:16:26;4.15;;;1.90;;
65667;SDS011;52369;52.542;13.232;2022-08-06T07:18:52;4.43;;;2.13;;
65667;SDS011;52369;52.542;13.232;2022-08-06T07:21:19;3.28;;;1.30;;
65667;SDS011;52369;52.542;13.232;2022-08-06T07:23:46;4.22;;;1.60;;
65667;SDS011;52369;52.542;13.232;2022-08-06T07:26:13;3.90;;;1.50;;
65667;SDS011;52369;52.542;13.232;2022-08-06T07:28:40;3.78;;;1.55;;
65667;SDS011;52369;52.542;13.232;2022-08-06T07:31:07;5.38;;;2.50;;
65667;SDS011;52369;52.542;13.232;2022-08-06T07:33:34;5.85;;;2.40;;
65667;SDS011;52369;52.542;13.232;2022-08-06T07:36:01;2.78;;;1.00;;
65667;SDS011;52369;52.542;13.232;2022-08-06T07:38:27;2.50;;;0.90;;
65667;SDS011;52369;52.542;13.232;2022-08-06T07:40:54;3.92;;;1.17;;
65667;SDS011;52369;52.542;13.232;2022-08-06T07:43:21;2.08;;;1.05;;
65667;SDS011;52369;52.542;13.232;2022-08-06T07:45:49;3.35;;;1.50;;
65667;SDS011;52369;52.542;13.232;2022-08-06T07:48:16;2.63;;;1.25;;
65667;SDS011;52369;52.542;13.232;2022-08-06T07:50:47;2.65;;;1.40;;
65667;SDS011;52369;52.542;13.232;2022-08-06T07:53:13;2.25;;;1.10;;
65667;SDS011;52369;52.542;13.232;2022-08-06T07:55:40;1.38;;;0.88;;
65667;SDS011;52369;52.542;13.232;2022-08-06T07:58:08;3.17;;;0.95;;
65667;SDS011;52369;52.542;13.232;2022-08-06T08:00:34;4.05;;;1.10;;
65667;SDS011;52369;52.542;13.232;2022-08-06T08:03:00;1.38;;;1.10;;
65667;SDS011;52369;52.542;13.232;2022-08-06T08:05:45;2.85;;;0.90;;
65667;SDS011;52369;52.542;13.232;2022-08-06T08:08:30;1.38;;;0.77;;
65667;SDS011;52369;52.542;13.232;2022-08-06T08:10:56;2.15;;;1.20;;
65667;SDS011;52369;52.542;13.232;2022-08-06T08:13:23;1.88;;;0.90;;
65667;SDS011;52369;52.542;13.232;2022-08-06T08:15:49;3.90;;;0.93;;
65667;SDS011;52369;52.542;13.232;2022-08-06T08:18:15;2.08;;;1.10;;
65667;SDS011;52369;52.542;13.232;2022-08-06T08:20:42;0.82;;;0.82;;
65667;SDS011;52369;52.542;13.232;2022-08-06T08:23:09;3.92;;;1.40;;
65667;SDS011;52369;52.542;13.232;2022-08-06T08:25:35;1.40;;;0.88;;
65667;SDS011;52369;52.542;13.232;2022-08-06T08:28:01;0.68;;;0.68;;
65667;SDS011;52369;52.542;13.232;2022-08-06T08:30:27;1.90;;;0.90;;
65667;SDS011;52369;52.542;13.232;2022-08-06T08:32:53;1.83;;;0.88;;
65667;SDS011;52369;52.542;13.232;2022-08-06T08:35:19;1.48;;;0.70;;
65667;SDS011;52369;52.542;13.232;2022-08-06T08:37:45;2.17;;;0.95;;
65667;SDS011;52369;52.542;13.232;2022-08-06T08:40:11;1.83;;;1.20;;
65667;SDS011;52369;52.542;13.232;2022-08-06T08:42:43;1.13;;;0.80;;
65667;SDS011;52369;52.542;13.232;2022-08-06T08:45:11;1.15;;;0.70;;
65667;SDS011;52369;52.542;13.232;2022-08-06T08:47:39;2.25;;;0.90;;
65667;SDS011;52369;52.542;13.232;2022-08-06T08:50:06;1.38;;;0.70;;
65667;SDS011;52369;52.542;13.232;2022-08-06T08:52:33;1.40;;;0.70;;
65667;SDS011;52369;52.542;13.232;2022-08-06T08:55:04;2.20;;;0.70;;
65667;SDS011;52369;52.542;13.232;2022-08-06T08:57:31;0.52;;;0.45;;
65667;SDS011;52369;52.542;13.232;2022-08-06T08:59:59;2.20;;;0.50;;
65667;SDS011;52369;52.542;13.232;2022-08-06T09:02:26;2.83;;;0.57;;
65667;SDS011;52369;52.542;13.232;2022-08-06T09:04:52;0.50;;;0.50;;
65667;SDS011;52369;52.542;13.232;2022-08-06T09:07:19;0.63;;;0.45;;
65667;SDS011;52369;52.542;13.232;2022-08-06T09:09:45;1.55;;;0.70;;
65667;SDS011;52369;52.542;13.232;2022-08-06T09:12:11;2.30;;;0.77;;
65667;SDS011;52369;52.542;13.232;2022-08-06T09:14:37;1.10;;;0.60;;
65667;SDS011;52369;52.542;13.232;2022-08-06T09:17:04;2.35;;;0.52;;
65667;SDS011;52369;52.542;13.232;2022-08-06T09:19:31;2.25;;;0.77;;
65667;SDS011;52369;52.542;13.232;2022-08-06T09:21:58;1.10;;;0.60;;
65667;SDS011;52369;52.542;13.232;2022-08-06T09:24:24;0.63;;;0.50;;
65667;SDS011;52369;52.542;13.232;2022-08-06T09:29:34;1.38;;;0.50;;
65667;SDS011;52369;52.542;13.232;2022-08-06T09:32:01;1.25;;;0.52;;
65667;SDS011;52369;52.542;13.232;2022-08-06T09:34:36;2.47;;;1.25;;
65667;SDS011;52369;52.542;13.232;2022-08-06T09:37:03;0.63;;;0.60;;
65667;SDS011;52369;52.542;13.232;2022-08-06T09:39:30;1.50;;;0.55;;
65667;SDS011;52369;52.542;13.232;2022-08-06T09:41:56;2.65;;;0.70;;
65667;SDS011;52369;52.542;13.232;2022-08-06T09:44:22;1.77;;;0.73;;
65667;SDS011;52369;52.542;13.232;2022-08-06T09:46:48;2.20;;;0.80;;
65667;SDS011;52369;52.542;13.232;2022-08-06T09:49:15;0.93;;;0.45;;
65667;SDS011;52369;52.542;13.232;2022-08-06T09:51:42;1.77;;;0.70;;
65667;SDS011;52369;52.542;13.232;2022-08-06T09:54:09;2.40;;;1.05;;
65667;SDS011;52369;52.542;13.232;2022-08-06T09:56:37;1.00;;;0.60;;
65667;SDS011;52369;52.542;13.232;2022-08-06T09:59:07;0.75;;;0.65;;
65667;SDS011;52369;52.542;13.232;2022-08-06T10:01:40;0.68;;;0.40;;
65667;SDS011;52369;52.542;13.232;2022-08-06T10:04:06;1.65;;;0.77;;
65667;SDS011;52369;52.542;13.232;2022-08-06T10:06:49;3.35;;;0.60;;
65667;SDS011;52369;52.542;13.232;2022-08-06T10:09:15;2.05;;;0.85;;
65667;SDS011;52369;52.542;13.232;2022-08-06T10:11:41;0.73;;;0.60;;
65667;SDS011;52369;52.542;13.232;2022-08-06T10:17:05;1.55;;;0.80;;
65667;SDS011;52369;52.542;13.232;2022-08-06T10:22:07;0.50;;;0.50;;
65667;SDS011;52369;52.542;13.232;2022-08-06T10:24:35;1.65;;;0.90;;
65667;SDS011;52369;52.542;13.232;2022-08-06T10:27:04;1.80;;;0.88;;
65667;SDS011;52369;52.542;13.232;2022-08-06T10:29:31;0.50;;;0.50;;
65667;SDS011;52369;52.542;13.232;2022-08-06T10:31:57;1.42;;;0.88;;
65667;SDS011;52369;52.542;13.232;2022-08-06T10:34:24;1.15;;;0.70;;
65667;SDS011;52369;52.542;13.232;2022-08-06T10:36:53;0.95;;;0.43;;
65667;SDS011;52369;52.542;13.232;2022-08-06T10:39:21;2.25;;;0.60;;
65667;SDS011;52369;52.542;13.232;2022-08-06T10:41:48;0.68;;;0.50;;
65667;SDS011;52369;52.542;13.232;2022-08-06T10:44:14;1.20;;;0.50;;
65667;SDS011;52369;52.542;13.232;2022-08-06T10:46:41;0.65;;;0.50;;
65667;SDS011;52369;52.542;13.232;2022-08-06T10:49:07;1.38;;;0.40;;
65667;SDS011;52369;52.542;13.232;2022-08-06T10:51:35;1.08;;;0.65;;
65667;SDS011;52369;52.542;13.232;2022-08-06T10:54:02;0.95;;;0.60;;
65667;SDS011;52369;52.542;13.232;2022-08-06T10:56:28;0.63;;;0.50;;
65667;SDS011;52369;52.542;13.232;2022-08-06T10:58:55;1.40;;;1.15;;
65667;SDS011;52369;52.542;13.232;2022-08-06T11:04:09;2.95;;;1.13;;
65667;SDS011;52369;52.542;13.232;2022-08-06T11:14:29;1.85;;;0.80;;
65667;SDS011;52369;52.542;13.232;2022-08-06T11:16:58;1.83;;;0.88;;
65667;SDS011;52369;52.542;13.232;2022-08-06T11:19:38;1.33;;;0.60;;
65667;SDS011;52369;52.542;13.232;2022-08-06T11:22:04;1.90;;;0.55;;
65667;SDS011;52369;52.542;13.232;2022-08-06T11:24:31;0.70;;;0.70;;
65667;SDS011;52369;52.542;13.232;2022-08-06T11:26:57;1.15;;;0.98;;
65667;SDS011;52369;52.542;13.232;2022-08-06T11:29:23;1.95;;;0.85;;
65667;SDS011;52369;52.542;13.232;2022-08-06T11:31:49;1.83;;;0.70;;
65667;SDS011;52369;52.542;13.232;2022-08-06T11:34:17;1.38;;;0.50;;
65667;SDS011;52369;52.542;13.232;2022-08-06T11:36:45;0.90;;;0.73;;
65667;SDS011;52369;52.542;13.232;2022-08-06T11:39:11;2.25;;;0.80;;
65667;SDS011;52369;52.542;13.232;2022-08-06T11:41:50;2.85;;;1.20;;
65667;SDS011;52369;52.542;13.232;2022-08-06T11:44:17;2.38;;;0.70;;
65667;SDS011;52369;52.542;13.232;2022-08-06T11:46:47;1.33;;;0.50;;
65667;SDS011;52369;52.542;13.232;2022-08-06T11:49:17;1.55;;;0.60;;
65667;SDS011;52369;52.542;13.232;2022-08-06T11:54:25;0.68;;;0.38;;
65667;SDS011;52369;52.542;13.232;2022-08-06T12:01:53;1.60;;;0.80;;
65667;SDS011;52369;52.542;13.232;2022-08-06T12:09:40;1.13;;;0.43;;
65667;SDS011;52369;52.542;13.232;2022-08-06T12:14:54;1.17;;;0.70;;
65667;SDS011;52369;52.542;13.232;2022-08-06T12:17:21;1.13;;;0.65;;
65667;SDS011;52369;52.542;13.232;2022-08-06T12:19:48;0.73;;;0.28;;
65667;SDS011;52369;52.542;13.232;2022-08-06T12:22:15;1.15;;;0.55;;
65667;SDS011;52369;52.542;13.232;2022-08-06T12:24:42;0.77;;;0.70;;
65667;SDS011;52369;52.542;13.232;2022-08-06T12:27:09;1.00;;;0.50;;
65667;SDS011;52369;52.542;13.232;2022-08-06T12:29:36;1.10;;;0.55;;
65667;SDS011;52369;52.542;13.232;2022-08-06T12:34:47;0.63;;;0.50;;
65667;SDS011;52369;52.542;13.232;2022-08-06T12:37:13;1.67;;;0.60;;
65667;SDS011;52369;52.542;13.232;2022-08-06T12:39:40;0.70;;;0.40;;
65667;SDS011;52369;52.542;13.232;2022-08-06T12:42:25;1.63;;;0.60;;
65667;SDS011;52369;52.542;13.232;2022-08-06T12:44:52;1.27;;;0.43;;
65667;SDS011;52369;52.542;13.232;2022-08-06T12:47:18;1.45;;;0.30;;
65667;SDS011;52369;52.542;13.232;2022-08-06T12:49:44;0.98;;;0.30;;
65667;SDS011;52369;52.542;13.232;2022-08-06T12:52:14;0.75;;;0.40;;
65667;SDS011;52369;52.542;13.232;2022-08-06T12:54:45;0.38;;;0.30;;
65667;SDS011;52369;52.542;13.232;2022-08-06T12:57:24;0.73;;;0.60;;
65667;SDS011;52369;52.542;13.232;2022-08-06T12:59:51;0.40;;;0.40;;
65667;SDS011;52369;52.542;13.232;2022-08-06T13:02:18;0.82;;;0.40;;
65667;SDS011;52369;52.542;13.232;2022-08-06T13:04:46;0.88;;;0.50;;
65667;SDS011;52369;52.542;13.232;2022-08-06T13:07:14;0.40;;;0.40;;
65667;SDS011;52369;52.542;13.232;2022-08-06T13:09:41;1.08;;;0.50;;
65667;SDS011;52369;52.542;13.232;2022-08-06T13:12:11;3.25;;;0.45;;
65667;SDS011;52369;52.542;13.232;2022-08-06T13:14:54;1.90;;;0.40;;
65667;SDS011;52369;52.542;13.232;2022-08-06T13:17:24;0.93;;;0.80;;
65667;SDS011;52369;52.542;13.232;2022-08-06T13:22:17;1.95;;;0.50;;
65667;SDS011;52369;52.542;13.232;2022-08-06T13:24:43;1.35;;;0.50;;
65667;SDS011;52369;52.542;13.232;2022-08-06T13:27:09;1.08;;;0.60;;
65667;SDS011;52369;52.542;13.232;2022-08-06T13:29:35;1.52;;;0.50;;
65667;SDS011;52369;52.542;13.232;2022-08-06T13:32:03;2.25;;;0.50;;
65667;SDS011;52369;52.542;13.232;2022-08-06T13:34:29;0.47;;;0.32;;
65667;SDS011;52369;52.542;13.232;2022-08-06T13:36:56;1.45;;;0.45;;
65667;SDS011;52369;52.542;13.232;2022-08-06T13:39:28;0.90;;;0.60;;
65667;SDS011;52369;52.542;13.232;2022-08-06T13:42:08;1.95;;;0.52;;
65667;SDS011;52369;52.542;13.232;2022-08-06T13:44:40;0.50;;;0.40;;
65667;SDS011;52369;52.542;13.232;2022-08-06T13:47:07;1.00;;;0.43;;
65667;SDS011;52369;52.542;13.232;2022-08-06T13:49:33;2.70;;;0.60;;
65667;SDS011;52369;52.542;13.232;2022-08-06T13:52:01;0.93;;;0.60;;
65667;SDS011;52369;52.542;13.232;2022-08-06T13:54:27;0.30;;;0.30;;
65667;SDS011;52369;52.542;13.232;2022-08-06T13:56:54;2.33;;;0.47;;
65667;SDS011;52369;52.542;13.232;2022-08-06T13:59:21;1.55;;;0.88;;
65667;SDS011;52369;52.542;13.232;2022-08-06T14:01:47;2.28;;;0.73;;
65667;SDS011;52369;52.542;13.232;2022-08-06T14:04:14;0.65;;;0.50;;
65667;SDS011;52369;52.542;13.232;2022-08-06T14:06:42;1.20;;;0.32;;
65667;SDS011;52369;52.542;13.232;2022-08-06T14:09:08;1.25;;;0.40;;
65667;SDS011;52369;52.542;13.232;2022-08-06T14:11:34;0.88;;;0.60;;
65667;SDS011;52369;52.542;13.232;2022-08-06T14:14:00;1.48;;;0.30;;
65667;SDS011;52369;52.542;13.232;2022-08-06T14:16:26;3.13;;;0.80;;
65667;SDS011;52369;52.542;13.232;2022-08-06T14:18:52;0.93;;;0.50;;
65667;SDS011;52369;52.542;13.232;2022-08-06T14:21:19;2.92;;;0.60;;
65667;SDS011;52369;52.542;13.232;2022-08-06T14:23:45;1.00;;;0.50;;
65667;SDS011;52369;52.542;13.232;2022-08-06T14:26:11;3.10;;;0.75;;
65667;SDS011;52369;52.542;13.232;2022-08-06T14:28:37;3.25;;;0.70;;
65667;SDS011;52369;52.542;13.232;2022-08-06T14:31:04;2.40;;;0.57;;
65667;SDS011;52369;52.542;13.232;2022-08-06T14:33:30;2.33;;;0.85;;
65667;SDS011;52369;52.542;13.232;2022-08-06T14:35:56;0.60;;;0.43;;
65667;SDS011;52369;52.542;13.232;2022-08-06T14:38:22;1.02;;;0.30;;
65667;SDS011;52369;52.542;13.232;2022-08-06T14:40:48;0.63;;;0.52;;
65667;SDS011;52369;52.542;13.232;2022-08-06T14:43:33;1.52;;;0.50;;
65667;SDS011;52369;52.542;13.232;2022-08-06T14:46:17;1.52;;;0.50;;
65667;SDS011;52369;52.542;13.232;2022-08-06T14:48:43;2.47;;;0.40;;
65667;SDS011;52369;52.542;13.232;2022-08-06T14:51:09;1.30;;;0.52;;
65667;SDS011;52369;52.542;13.232;2022-08-06T14:53:35;2.33;;;0.50;;
65667;SDS011;52369;52.542;13.232;2022-08-06T14:56:01;1.58;;;0.40;;
65667;SDS011;52369;52.542;13.232;2022-08-06T14:58:27;0.70;;;0.43;;
65667;SDS011;52369;52.542;13.232;2022-08-06T15:00:53;0.80;;;0.30;;
65667;SDS011;52369;52.542;13.232;2022-08-06T15:03:19;1.83;;;0.80;;
65667;SDS011;52369;52.542;13.232;2022-08-06T15:05:46;1.58;;;0.70;;
65667;SDS011;52369;52.542;13.232;2022-08-06T15:08:12;3.58;;;1.65;;
65667;SDS011;52369;52.542;13.232;2022-08-06T15:10:38;1.52;;;0.93;;
65667;SDS011;52369;52.542;13.232;2022-08-06T15:13:04;1.73;;;0.60;;
65667;SDS011;52369;52.542;13.232;2022-08-06T15:15:31;1.95;;;0.50;;
65667;SDS011;52369;52.542;13.232;2022-08-06T15:17:58;1.98;;;0.55;;
65667;SDS011;52369;52.542;13.232;2022-08-06T15:20:24;0.73;;;0.47;;
65667;SDS011;52369;52.542;13.232;2022-08-06T15:22:50;0.95;;;0.50;;
65667;SDS011;52369;52.542;13.232;2022-08-06T15:25:16;2.05;;;0.50;;
65667;SDS011;52369;52.542;13.232;2022-08-06T15:27:45;1.15;;;0.40;;
65667;SDS011;52369;52.542;13.232;2022-08-06T15:30:12;1.05;;;0.95;;
65667;SDS011;52369;52.542;13.232;2022-08-06T15:32:38;2.17;;;1.50;;
65667;SDS011;52369;52.542;13.232;2022-08-06T15:35:04;3.05;;;1.20;;
65667;SDS011;52369;52.542;13.232;2022-08-06T15:37:30;0.95;;;0.32;;
65667;SDS011;52369;52.542;13.232;2022-08-06T15:39:57;0.88;;;0.50;;
65667;SDS011;52369;52.542;13.232;2022-08-06T15:42:23;0.95;;;0.63;;
65667;SDS011;52369;52.542;13.232;2022-08-06T15:44:49;1.33;;;0.50;;
65667;SDS011;52369;52.542;13.232;2022-08-06T15:47:15;1.17;;;0.47;;
65667;SDS011;52369;52.542;13.232;2022-08-06T15:49:41;0.82;;;0.30;;
65667;SDS011;52369;52.542;13.232;2022-08-06T15:52:07;1.23;;;0.60;;
65667;SDS011;52369;52.542;13.232;2022-08-06T15:54:34;2.92;;;0.50;;